createdAt,value
2018-04-06T00:00:28.688Z,60.33
2018-04-06T00:01:00.305Z,60.34
2018-04-06T00:01:31.900Z,60.37
2018-04-06T00:02:03.548Z,60.37
2018-04-06T00:02:35.150Z,60.41
2018-04-06T00:03:06.764Z,60.41
2018-04-06T00:03:38.381Z,60.39
2018-04-06T00:04:10.036Z,60.46
2018-04-06T00:04:41.675Z,60.46
2018-04-06T00:05:13.252Z,60.53
2018-04-06T00:05:44.840Z,60.47
2018-04-06T00:06:16.444Z,60.69
2018-04-06T00:06:48.036Z,60.68
2018-04-06T00:07:19.668Z,60.72
2018-04-06T00:07:51.276Z,60.71
2018-04-06T00:08:22.869Z,60.76
2018-04-06T00:08:54.465Z,60.79
2018-04-06T00:09:26.054Z,60.87
2018-04-06T00:09:57.640Z,60.91
2018-04-06T00:10:29.240Z,60.95
2018-04-06T00:11:00.848Z,60.95
2018-04-06T00:11:32.490Z,61.06
2018-04-06T00:12:04.066Z,61.09
2018-04-06T00:12:35.658Z,61.12
2018-04-06T00:13:07.260Z,61.15
2018-04-06T00:13:38.863Z,61.29
2018-04-06T00:14:10.480Z,61.35
2018-04-06T00:14:42.067Z,61.35
2018-04-06T00:15:13.687Z,61.32
2018-04-06T00:15:45.297Z,61.46
2018-04-06T00:16:16.911Z,61.72
2018-04-06T00:16:48.500Z,61.60
2018-04-06T00:17:20.111Z,61.64
2018-04-06T00:17:51.724Z,61.72
2018-04-06T00:18:23.339Z,61.96
2018-04-06T00:18:54.936Z,62.09
2018-04-06T00:19:26.543Z,61.92
2018-04-06T00:19:58.174Z,62.06
2018-04-06T00:20:29.770Z,62.08
2018-04-06T00:21:01.363Z,62.01
2018-04-06T00:21:32.971Z,62.03
2018-04-06T00:22:04.584Z,62.02
2018-04-06T00:22:36.200Z,62.32
2018-04-06T00:23:07.778Z,62.41
2018-04-06T00:23:39.368Z,62.21
2018-04-06T00:24:10.958Z,62.25
2018-04-06T00:24:42.568Z,62.12
2018-04-06T00:25:14.204Z,62.10
2018-04-06T00:25:45.788Z,62.30
2018-04-06T00:26:17.377Z,62.36
2018-04-06T00:26:48.959Z,62.42
2018-04-06T00:27:20.572Z,62.56
2018-04-06T00:27:52.180Z,62.32
2018-04-06T00:28:23.772Z,62.31
2018-04-06T00:28:55.376Z,62.68
2018-04-06T00:29:26.968Z,62.44
2018-04-06T00:29:58.558Z,62.97
2018-04-06T00:30:30.168Z,62.94
2018-04-06T00:31:01.788Z,62.87
2018-04-06T00:31:33.402Z,62.83
2018-04-06T00:32:05.069Z,62.69
2018-04-06T00:32:36.692Z,62.69
2018-04-06T00:33:08.311Z,62.68
2018-04-06T00:33:39.900Z,62.59
2018-04-06T00:34:11.493Z,62.56
2018-04-06T00:34:43.086Z,62.53
2018-04-06T00:35:14.684Z,62.59
2018-04-06T00:35:46.327Z,62.64
2018-04-06T00:36:17.956Z,62.88
2018-04-06T00:36:49.532Z,62.75
2018-04-06T00:37:21.126Z,62.75
2018-04-06T00:37:52.713Z,62.86
2018-04-06T00:38:24.295Z,62.94
2018-04-06T00:38:55.897Z,62.67
2018-04-06T00:39:27.502Z,62.96
2018-04-06T00:39:59.092Z,62.83
2018-04-06T00:40:30.683Z,62.93
2018-04-06T00:41:02.340Z,62.88
2018-04-06T00:41:33.960Z,62.73
2018-04-06T00:42:05.576Z,62.87
2018-04-06T00:42:37.168Z,62.81
2018-04-06T00:43:08.753Z,62.75
2018-04-06T00:43:40.368Z,62.80
2018-04-06T00:44:11.966Z,62.83
2018-04-06T00:44:43.581Z,62.53
2018-04-06T00:45:15.197Z,62.70
2018-04-06T00:45:46.848Z,62.71
2018-04-06T00:46:18.446Z,62.55
2018-04-06T00:46:50.057Z,62.63
2018-04-06T00:47:21.649Z,62.39
2018-04-06T00:47:53.256Z,62.61
2018-04-06T00:48:24.903Z,62.53
2018-04-06T00:48:56.502Z,62.52
2018-04-06T00:49:28.116Z,62.44
2018-04-06T00:49:59.744Z,62.55
2018-04-06T00:50:31.356Z,62.49
2018-04-06T00:51:02.948Z,62.92
2018-04-06T00:51:34.560Z,62.96
2018-04-06T00:52:06.193Z,62.62
2018-04-06T00:52:37.770Z,62.54
2018-04-06T00:53:09.366Z,62.51
2018-04-06T00:53:40.980Z,62.61
2018-04-06T00:54:12.583Z,62.79
2018-04-06T00:54:44.190Z,62.85
2018-04-06T00:55:15.803Z,62.45
2018-04-06T00:55:47.417Z,62.55
2018-04-06T00:56:19.019Z,62.77
2018-04-06T00:56:50.628Z,62.57
2018-04-06T00:57:22.247Z,62.51
2018-04-06T00:57:53.832Z,62.32
2018-04-06T00:58:25.402Z,62.40
2018-04-06T00:58:56.987Z,62.33
2018-04-06T00:59:28.575Z,62.56
2018-04-06T01:00:00.179Z,62.67
2018-04-06T01:00:31.783Z,62.40
2018-04-06T01:01:03.397Z,62.40
2018-04-06T01:01:35.007Z,62.46
2018-04-06T01:02:06.610Z,62.48
2018-04-06T01:02:38.214Z,62.28
2018-04-06T01:03:09.832Z,62.53
2018-04-06T01:03:41.448Z,62.48
2018-04-06T01:04:13.041Z,62.26
2018-04-06T01:04:44.649Z,62.30
2018-04-06T01:05:16.307Z,62.39
2018-04-06T01:05:47.926Z,62.35
2018-04-06T01:06:19.539Z,62.31
2018-04-06T01:06:51.144Z,62.38
2018-04-06T01:07:22.732Z,62.46
2018-04-06T01:07:54.320Z,62.29
2018-04-06T01:08:25.920Z,62.20
2018-04-06T01:08:57.533Z,62.26
2018-04-06T01:09:29.141Z,62.52
2018-04-06T01:10:00.749Z,62.48
2018-04-06T01:10:32.375Z,62.44
2018-04-06T01:11:03.954Z,62.53
2018-04-06T01:11:35.568Z,62.45
2018-04-06T01:12:07.180Z,62.37
2018-04-06T01:12:38.762Z,62.46
2018-04-06T01:13:10.379Z,62.31
2018-04-06T01:13:41.968Z,62.60
2018-04-06T01:14:13.580Z,62.68
2018-04-06T01:14:45.172Z,62.46
2018-04-06T01:15:16.800Z,62.65
2018-04-06T01:15:48.408Z,62.76
2018-04-06T01:16:20.002Z,62.81
2018-04-06T01:16:51.611Z,62.61
2018-04-06T01:17:23.207Z,62.74
2018-04-06T01:17:54.792Z,62.77
2018-04-06T01:18:26.380Z,62.77
2018-04-06T01:18:57.988Z,62.64
2018-04-06T01:19:29.577Z,63.03
2018-04-06T01:20:01.210Z,62.90
2018-04-06T01:20:32.840Z,62.90
2018-04-06T01:21:04.444Z,62.89
2018-04-06T01:21:36.082Z,63.00
2018-04-06T01:22:07.687Z,63.15
2018-04-06T01:22:39.267Z,63.09
2018-04-06T01:23:10.840Z,63.16
2018-04-06T01:23:42.428Z,63.01
2018-04-06T01:24:14.031Z,62.85
2018-04-06T01:24:45.644Z,62.98
2018-04-06T01:25:17.227Z,62.86
2018-04-06T01:25:48.806Z,62.81
2018-04-06T01:26:20.456Z,62.88
2018-04-06T01:26:52.059Z,62.91
2018-04-06T01:27:23.649Z,62.88
2018-04-06T01:27:55.261Z,62.91
2018-04-06T01:28:26.858Z,62.77
2018-04-06T01:28:58.446Z,62.87
2018-04-06T01:29:30.038Z,62.76
2018-04-06T01:30:01.673Z,62.88
2018-04-06T01:30:33.275Z,62.87
2018-04-06T01:31:04.879Z,62.95
2018-04-06T01:31:36.459Z,62.88
2018-04-06T01:32:08.068Z,62.95
2018-04-06T01:32:39.684Z,62.88
2018-04-06T01:33:11.287Z,62.82
2018-04-06T01:33:42.882Z,63.00
2018-04-06T01:34:14.478Z,62.94
2018-04-06T01:34:46.088Z,62.96
2018-04-06T01:35:17.746Z,62.94
2018-04-06T01:35:49.339Z,62.98
2018-04-06T01:36:20.934Z,63.01
2018-04-06T01:36:52.510Z,63.18
2018-04-06T01:37:24.096Z,63.05
2018-04-06T01:37:55.695Z,63.14
2018-04-06T01:38:27.293Z,63.11
2018-04-06T01:38:58.880Z,63.04
2018-04-06T01:39:30.468Z,63.03
2018-04-06T01:40:02.057Z,63.21
2018-04-06T01:40:33.713Z,63.27
2018-04-06T01:41:05.328Z,63.17
2018-04-06T01:41:36.924Z,63.14
2018-04-06T01:42:08.508Z,63.33
2018-04-06T01:42:40.117Z,63.22
2018-04-06T01:43:11.704Z,63.30
2018-04-06T01:43:43.312Z,63.29
2018-04-06T01:44:14.910Z,63.38
2018-04-06T01:44:46.521Z,63.30
2018-04-06T01:45:18.126Z,63.22
2018-04-06T01:45:49.741Z,63.40
2018-04-06T01:46:21.328Z,63.51
2018-04-06T01:46:53.055Z,63.59
2018-04-06T01:47:24.663Z,63.46
2018-04-06T01:47:56.252Z,63.39
2018-04-06T01:48:27.853Z,63.53
2018-04-06T01:48:59.444Z,63.55
2018-04-06T01:49:31.096Z,63.58
2018-04-06T01:50:02.684Z,63.48
2018-04-06T01:50:34.272Z,63.42
2018-04-06T01:51:05.854Z,63.53
2018-04-06T01:51:37.486Z,63.78
2018-04-06T01:52:09.070Z,63.89
2018-04-06T01:52:40.655Z,63.96
2018-04-06T01:53:12.240Z,63.96
2018-04-06T01:53:43.829Z,63.73
2018-04-06T01:54:15.419Z,64.09
2018-04-06T01:54:47.060Z,64.03
2018-04-06T01:55:18.676Z,64.07
2018-04-06T01:55:50.254Z,64.29
2018-04-06T01:56:21.863Z,64.16
2018-04-06T01:56:53.480Z,64.29
2018-04-06T01:57:25.072Z,64.28
2018-04-06T01:57:56.660Z,64.29
2018-04-06T01:58:28.248Z,64.21
2018-04-06T01:58:59.836Z,64.31
2018-04-06T01:59:31.411Z,64.37
2018-04-06T02:00:02.993Z,64.32
2018-04-06T02:00:34.579Z,64.34
2018-04-06T02:01:06.192Z,64.21
2018-04-06T02:01:37.789Z,64.37
2018-04-06T02:02:09.377Z,64.37
2018-04-06T02:02:40.961Z,64.50
2018-04-06T02:03:12.596Z,64.28
2018-04-06T02:03:44.176Z,64.37
2018-04-06T02:04:15.765Z,64.46
2018-04-06T02:04:47.372Z,64.13
2018-04-06T02:05:18.974Z,64.22
2018-04-06T02:05:50.583Z,64.24
2018-04-06T02:06:22.171Z,64.25
2018-04-06T02:06:53.747Z,64.26
2018-04-06T02:07:25.346Z,64.33
2018-04-06T02:07:56.946Z,64.28
2018-04-06T02:08:28.562Z,64.21
2018-04-06T02:09:00.176Z,64.28
2018-04-06T02:09:31.769Z,64.27
2018-04-06T02:10:03.371Z,64.24
2018-04-06T02:10:34.965Z,64.34
2018-04-06T02:11:06.561Z,64.27
2018-04-06T02:11:38.163Z,64.32
2018-04-06T02:12:09.750Z,64.34
2018-04-06T02:12:41.350Z,64.40
2018-04-06T02:13:12.990Z,64.27
2018-04-06T02:13:44.580Z,64.22
2018-04-06T02:14:16.167Z,64.36
2018-04-06T02:14:47.771Z,64.14
2018-04-06T02:15:19.350Z,64.19
2018-04-06T02:15:50.946Z,64.25
2018-04-06T02:16:22.541Z,64.20
2018-04-06T02:16:54.163Z,64.08
2018-04-06T02:17:25.739Z,64.19
2018-04-06T02:17:57.324Z,64.08
2018-04-06T02:18:28.906Z,64.01
2018-04-06T02:19:00.502Z,63.99
2018-04-06T02:19:32.119Z,63.99
2018-04-06T02:20:03.708Z,63.79
2018-04-06T02:20:35.293Z,63.81
2018-04-06T02:21:06.891Z,63.68
2018-04-06T02:21:38.552Z,63.86
2018-04-06T02:22:10.149Z,63.79
2018-04-06T02:22:41.735Z,63.73
2018-04-06T02:23:13.364Z,63.43
2018-04-06T02:23:44.943Z,63.32
2018-04-06T02:24:16.597Z,63.30
2018-04-06T02:24:48.224Z,63.37
2018-04-06T02:25:19.807Z,63.36
2018-04-06T02:25:51.417Z,63.19
2018-04-06T02:26:23.004Z,63.25
2018-04-06T02:26:54.612Z,63.12
2018-04-06T02:27:26.215Z,63.39
2018-04-06T02:27:57.873Z,63.17
2018-04-06T02:28:29.491Z,62.99
2018-04-06T02:29:01.092Z,62.90
2018-04-06T02:29:32.686Z,62.84
2018-04-06T02:30:04.311Z,62.83
2018-04-06T02:30:35.924Z,62.76
2018-04-06T02:31:07.537Z,62.87
2018-04-06T02:31:39.140Z,62.66
2018-04-06T02:32:10.732Z,62.80
2018-04-06T02:32:42.311Z,62.63
2018-04-06T02:33:13.944Z,62.58
2018-04-06T02:33:45.572Z,62.66
2018-04-06T02:34:17.143Z,62.67
2018-04-06T02:34:48.782Z,62.52
2018-04-06T02:35:20.385Z,62.46
2018-04-06T02:35:51.973Z,62.43
2018-04-06T02:36:23.555Z,62.38
2018-04-06T02:36:55.140Z,62.50
2018-04-06T02:37:26.734Z,62.25
2018-04-06T02:37:58.352Z,62.37
2018-04-06T02:38:29.949Z,62.31
2018-04-06T02:39:01.543Z,62.25
2018-04-06T02:39:33.137Z,62.33
2018-04-06T02:40:04.793Z,62.22
2018-04-06T02:40:36.395Z,62.24
2018-04-06T02:41:08.009Z,62.31
2018-04-06T02:41:39.613Z,62.20
2018-04-06T02:42:11.225Z,62.32
2018-04-06T02:42:42.841Z,62.19
2018-04-06T02:43:14.448Z,62.32
2018-04-06T02:43:46.041Z,62.12
2018-04-06T02:44:17.631Z,62.08
2018-04-06T02:44:49.224Z,61.99
2018-04-06T02:45:20.889Z,62.17
2018-04-06T02:45:52.507Z,61.95
2018-04-06T02:46:24.096Z,62.02
2018-04-06T02:46:55.760Z,61.95
2018-04-06T02:47:27.357Z,61.99
2018-04-06T02:47:58.945Z,61.99
2018-04-06T02:48:30.532Z,62.01
2018-04-06T02:49:02.124Z,61.88
2018-04-06T02:49:33.717Z,61.97
2018-04-06T02:50:05.309Z,61.79
2018-04-06T02:50:36.949Z,61.95
2018-04-06T02:51:08.550Z,62.00
2018-04-06T02:51:40.134Z,62.11
2018-04-06T02:52:11.749Z,62.13
2018-04-06T02:52:43.360Z,61.89
2018-04-06T02:53:14.953Z,61.92
2018-04-06T02:53:47.591Z,62.04
2018-04-06T02:54:19.169Z,61.96
2018-04-06T02:54:50.761Z,62.07
2018-04-06T02:55:22.368Z,61.96
2018-04-06T02:55:53.978Z,62.24
2018-04-06T02:56:25.578Z,61.95
2018-04-06T02:56:57.168Z,61.96
2018-04-06T02:57:28.776Z,62.09
2018-04-06T02:58:00.389Z,61.97
2018-04-06T02:58:32.000Z,61.97
2018-04-06T02:59:03.612Z,62.11
2018-04-06T02:59:35.209Z,61.92
2018-04-06T03:00:06.820Z,61.94
2018-04-06T03:00:38.466Z,61.97
2018-04-06T03:01:10.052Z,61.91
2018-04-06T03:01:41.645Z,61.81
2018-04-06T03:02:13.229Z,61.86
2018-04-06T03:02:44.840Z,61.78
2018-04-06T03:03:16.433Z,61.96
2018-04-06T03:03:48.036Z,61.87
2018-04-06T03:04:19.680Z,61.77
2018-04-06T03:04:51.278Z,61.98
2018-04-06T03:05:22.896Z,61.79
2018-04-06T03:05:54.484Z,61.78
2018-04-06T03:06:26.062Z,61.91
2018-04-06T03:06:57.686Z,62.24
2018-04-06T03:07:29.287Z,62.23
2018-04-06T03:08:00.876Z,61.98
2018-04-06T03:08:32.475Z,62.33
2018-04-06T03:09:04.084Z,62.39
2018-04-06T03:09:35.784Z,62.14
2018-04-06T03:10:07.371Z,62.22
2018-04-06T03:10:38.982Z,62.28
2018-04-06T03:11:10.584Z,62.24
2018-04-06T03:11:42.184Z,62.21
2018-04-06T03:12:13.797Z,62.04
2018-04-06T03:12:45.447Z,62.25
2018-04-06T03:13:17.046Z,62.67
2018-04-06T03:13:48.660Z,62.37
2018-04-06T03:14:20.276Z,62.34
2018-04-06T03:14:51.922Z,62.47
2018-04-06T03:15:23.471Z,62.50
2018-04-06T03:15:55.072Z,62.36
2018-04-06T03:16:26.728Z,62.54
2018-04-06T03:16:58.340Z,62.34
2018-04-06T03:17:29.928Z,62.53
2018-04-06T03:18:01.513Z,62.61
2018-04-06T03:18:33.104Z,62.51
2018-04-06T03:19:04.691Z,62.50
2018-04-06T03:19:36.277Z,62.47
2018-04-06T03:20:07.869Z,62.52
2018-04-06T03:20:39.476Z,62.56
2018-04-06T03:21:11.139Z,62.54
2018-04-06T03:21:42.739Z,62.52
2018-04-06T03:22:14.322Z,62.40
2018-04-06T03:22:45.926Z,62.61
2018-04-06T03:23:17.544Z,62.50
2018-04-06T03:23:49.126Z,62.50
2018-04-06T03:24:20.712Z,62.48
2018-04-06T03:24:52.288Z,62.53
2018-04-06T03:25:23.867Z,62.52
2018-04-06T03:25:55.442Z,62.51
2018-04-06T03:26:27.059Z,62.57
2018-04-06T03:26:58.659Z,62.58
2018-04-06T03:27:30.267Z,62.52
2018-04-06T03:28:01.905Z,62.51
2018-04-06T03:28:33.480Z,62.57
2018-04-06T03:29:05.065Z,62.53
2018-04-06T03:29:36.678Z,62.56
2018-04-06T03:30:08.274Z,62.49
2018-04-06T03:30:39.881Z,62.55
2018-04-06T03:31:11.488Z,62.51
2018-04-06T03:31:43.080Z,62.51
2018-04-06T03:32:14.734Z,62.50
2018-04-06T03:32:46.330Z,62.45
2018-04-06T03:33:17.926Z,62.46
2018-04-06T03:33:49.506Z,62.49
2018-04-06T03:34:21.095Z,62.46
2018-04-06T03:34:52.694Z,62.48
2018-04-06T03:35:24.312Z,62.49
2018-04-06T03:35:55.924Z,62.46
2018-04-06T03:36:27.512Z,62.45
2018-04-06T03:36:59.120Z,62.52
2018-04-06T03:37:30.722Z,62.50
2018-04-06T03:38:02.312Z,62.45
2018-04-06T03:38:33.890Z,62.50
2018-04-06T03:39:05.472Z,62.51
2018-04-06T03:39:37.061Z,62.52
2018-04-06T03:40:08.673Z,62.53
2018-04-06T03:40:40.288Z,62.59
2018-04-06T03:41:11.879Z,62.55
2018-04-06T03:41:43.504Z,62.61
2018-04-06T03:42:15.139Z,62.57
2018-04-06T03:42:46.728Z,62.58
2018-04-06T03:43:18.317Z,62.51
2018-04-06T03:43:50.128Z,62.55
2018-04-06T03:44:21.720Z,62.51
2018-04-06T03:44:53.323Z,62.48
2018-04-06T03:45:24.968Z,62.50
2018-04-06T03:45:56.558Z,62.51
2018-04-06T03:46:28.134Z,62.54
2018-04-06T03:46:59.735Z,62.49
2018-04-06T03:47:31.348Z,62.55
2018-04-06T03:48:02.980Z,62.60
2018-04-06T03:48:34.576Z,62.64
2018-04-06T03:49:06.210Z,62.61
2018-04-06T03:49:37.824Z,62.58
2018-04-06T03:50:09.468Z,62.77
2018-04-06T03:50:41.060Z,62.66
2018-04-06T03:51:12.674Z,62.53
2018-04-06T03:51:44.260Z,62.60
2018-04-06T03:52:15.852Z,62.67
2018-04-06T03:52:47.464Z,62.59
2018-04-06T03:53:19.128Z,62.68
2018-04-06T03:53:50.716Z,62.68
2018-04-06T03:54:22.300Z,62.68
2018-04-06T03:54:53.886Z,62.58
2018-04-06T03:55:25.516Z,62.61
2018-04-06T03:55:57.100Z,62.50
2018-04-06T03:56:28.700Z,62.66
2018-04-06T03:57:00.309Z,62.65
2018-04-06T03:57:31.894Z,62.72
2018-04-06T03:58:03.490Z,62.70
2018-04-06T03:58:35.123Z,62.54
2018-04-06T03:59:06.748Z,62.46
2018-04-06T03:59:38.338Z,62.45
2018-04-06T04:00:09.948Z,62.43
2018-04-06T04:00:41.535Z,62.22
2018-04-06T04:01:13.114Z,62.03
2018-04-06T04:01:44.731Z,62.65
2018-04-06T04:02:16.320Z,61.99
2018-04-06T04:02:47.904Z,61.71
2018-04-06T04:03:19.517Z,61.59
2018-04-06T04:03:51.128Z,61.48
2018-04-06T04:04:22.771Z,61.41
2018-04-06T04:04:54.379Z,61.39
2018-04-06T04:05:25.997Z,61.43
2018-04-06T04:05:57.608Z,61.66
2018-04-06T04:06:29.248Z,61.73
2018-04-06T04:07:00.865Z,61.76
2018-04-06T04:07:32.488Z,61.77
2018-04-06T04:08:04.071Z,61.74
2018-04-06T04:08:35.660Z,61.80
2018-04-06T04:09:07.250Z,61.80
2018-04-06T04:09:38.860Z,61.88
2018-04-06T04:10:10.448Z,61.90
2018-04-06T04:10:42.056Z,61.94
2018-04-06T04:11:13.653Z,62.08
2018-04-06T04:11:45.296Z,62.03
2018-04-06T04:12:16.880Z,62.18
2018-04-06T04:12:48.487Z,61.98
2018-04-06T04:13:20.076Z,61.84
2018-04-06T04:13:51.688Z,61.98
2018-04-06T04:14:23.272Z,61.91
2018-04-06T04:14:54.860Z,61.69
2018-04-06T04:15:26.468Z,61.51
2018-04-06T04:15:58.062Z,61.54
2018-04-06T04:16:29.725Z,61.43
2018-04-06T04:17:01.320Z,61.55
2018-04-06T04:17:32.898Z,61.58
2018-04-06T04:18:04.504Z,61.59
2018-04-06T04:18:36.100Z,61.61
2018-04-06T04:19:07.724Z,61.71
2018-04-06T04:19:39.312Z,61.72
2018-04-06T04:20:10.910Z,61.78
2018-04-06T04:20:42.524Z,61.84
2018-04-06T04:21:14.118Z,61.82
2018-04-06T04:21:45.709Z,61.81
2018-04-06T04:22:17.287Z,61.76
2018-04-06T04:22:48.885Z,61.77
2018-04-06T04:23:20.497Z,61.80
2018-04-06T04:23:52.084Z,61.88
2018-04-06T04:24:23.668Z,61.79
2018-04-06T04:24:55.252Z,61.69
2018-04-06T04:25:26.845Z,61.64
2018-04-06T04:25:58.430Z,61.49
2018-04-06T04:26:30.007Z,61.54
2018-04-06T04:27:01.637Z,61.50
2018-04-06T04:27:33.293Z,61.48
2018-04-06T04:28:04.909Z,61.32
2018-04-06T04:28:36.518Z,61.24
2018-04-06T04:29:08.113Z,61.39
2018-04-06T04:29:39.703Z,61.23
2018-04-06T04:30:11.308Z,61.29
2018-04-06T04:30:42.897Z,61.31
2018-04-06T04:31:14.484Z,61.35
2018-04-06T04:31:46.073Z,61.27
2018-04-06T04:32:17.720Z,61.28
2018-04-06T04:32:49.306Z,61.32
2018-04-06T04:33:20.910Z,61.40
2018-04-06T04:33:52.486Z,61.20
2018-04-06T04:34:24.103Z,61.21
2018-04-06T04:34:55.702Z,61.16
2018-04-06T04:35:27.288Z,61.08
2018-04-06T04:35:58.898Z,61.13
2018-04-06T04:36:30.497Z,61.07
2018-04-06T04:37:02.084Z,61.16
2018-04-06T04:37:33.734Z,61.18
2018-04-06T04:38:05.310Z,61.16
2018-04-06T04:38:36.893Z,61.08
2018-04-06T04:39:08.480Z,61.24
2018-04-06T04:39:40.080Z,61.21
2018-04-06T04:40:11.681Z,61.18
2018-04-06T04:40:43.320Z,61.27
2018-04-06T04:41:14.932Z,61.25
2018-04-06T04:41:46.523Z,61.24
2018-04-06T04:42:18.109Z,61.09
2018-04-06T04:42:49.716Z,61.12
2018-04-06T04:43:21.308Z,61.04
2018-04-06T04:43:53.002Z,61.04
2018-04-06T04:44:24.594Z,61.06
2018-04-06T04:44:56.185Z,61.11
2018-04-06T04:45:27.792Z,60.98
2018-04-06T04:45:59.443Z,60.98
2018-04-06T04:46:31.040Z,60.98
2018-04-06T04:47:02.641Z,60.95
2018-04-06T04:47:34.255Z,60.98
2018-04-06T04:48:05.875Z,61.01
2018-04-06T04:48:37.474Z,60.94
2018-04-06T04:49:09.062Z,60.91
2018-04-06T04:49:40.668Z,60.86
2018-04-06T04:50:12.275Z,60.97
2018-04-06T04:50:43.868Z,60.93
2018-04-06T04:51:15.503Z,60.90
2018-04-06T04:51:47.113Z,60.91
2018-04-06T04:52:18.728Z,60.89
2018-04-06T04:52:50.320Z,60.88
2018-04-06T04:53:21.913Z,60.77
2018-04-06T04:53:53.506Z,60.82
2018-04-06T04:54:25.120Z,60.90
2018-04-06T04:54:56.708Z,60.91
2018-04-06T04:55:28.316Z,60.81
2018-04-06T04:55:59.929Z,60.88
2018-04-06T04:56:31.564Z,60.73
2018-04-06T04:57:03.142Z,60.78
2018-04-06T04:57:34.758Z,60.85
2018-04-06T04:58:06.340Z,60.86
2018-04-06T04:58:37.923Z,60.88
2018-04-06T04:59:09.523Z,60.87
2018-04-06T04:59:41.126Z,60.91
2018-04-06T05:00:12.736Z,60.89
2018-04-06T05:00:44.325Z,60.92
2018-04-06T05:01:15.927Z,60.97
2018-04-06T05:01:47.535Z,60.99
2018-04-06T05:02:19.126Z,61.12
2018-04-06T05:02:50.752Z,60.88
2018-04-06T05:03:22.348Z,61.01
2018-04-06T05:03:53.969Z,60.89
2018-04-06T05:04:25.598Z,60.89
2018-04-06T05:04:57.222Z,60.93
2018-04-06T05:05:28.841Z,61.00
2018-04-06T05:06:00.448Z,60.81
2018-04-06T05:06:32.051Z,61.21
2018-04-06T05:07:03.693Z,60.91
2018-04-06T05:07:35.276Z,60.97
2018-04-06T05:08:06.862Z,60.99
2018-04-06T05:08:38.472Z,61.02
2018-04-06T05:09:10.060Z,61.10
2018-04-06T05:09:41.672Z,61.01
2018-04-06T05:10:13.287Z,60.98
2018-04-06T05:10:44.879Z,61.03
2018-04-06T05:11:16.469Z,61.09
2018-04-06T05:11:48.065Z,61.03
2018-04-06T05:12:19.718Z,61.00
2018-04-06T05:12:51.298Z,61.04
2018-04-06T05:13:22.944Z,61.02
2018-04-06T05:13:54.556Z,60.99
2018-04-06T05:14:26.145Z,61.06
2018-04-06T05:14:57.741Z,61.05
2018-04-06T05:15:29.349Z,61.09
2018-04-06T05:16:00.948Z,61.16
2018-04-06T05:16:32.547Z,61.15
2018-04-06T05:17:04.141Z,61.20
2018-04-06T05:17:35.776Z,61.27
2018-04-06T05:18:07.436Z,61.21
2018-04-06T05:18:39.039Z,61.23
2018-04-06T05:19:10.619Z,61.38
2018-04-06T05:19:42.204Z,61.22
2018-04-06T05:20:13.792Z,61.39
2018-04-06T05:20:45.385Z,61.32
2018-04-06T05:21:16.996Z,61.40
2018-04-06T05:21:48.625Z,61.33
2018-04-06T05:22:20.245Z,61.37
2018-04-06T05:22:51.830Z,61.54
2018-04-06T05:23:23.441Z,61.59
2018-04-06T05:23:55.073Z,61.54
2018-04-06T05:24:26.743Z,61.44
2018-04-06T05:24:58.306Z,61.54
2018-04-06T05:25:29.893Z,61.63
2018-04-06T05:26:01.471Z,61.58
2018-04-06T05:26:33.072Z,61.63
2018-04-06T05:27:04.660Z,61.68
2018-04-06T05:27:36.259Z,61.70
2018-04-06T05:28:07.864Z,61.75
2018-04-06T05:28:39.476Z,61.81
2018-04-06T05:29:11.115Z,61.82
2018-04-06T05:29:42.716Z,61.80
2018-04-06T05:30:14.323Z,61.95
2018-04-06T05:30:45.922Z,61.93
2018-04-06T05:31:17.539Z,61.90
2018-04-06T05:31:49.142Z,61.96
2018-04-06T05:32:20.764Z,61.97
2018-04-06T05:32:52.375Z,62.04
2018-04-06T05:33:23.979Z,62.14
2018-04-06T05:33:55.582Z,62.11
2018-04-06T05:34:27.204Z,62.16
2018-04-06T05:34:58.812Z,62.15
2018-04-06T05:35:30.424Z,62.08
2018-04-06T05:36:02.056Z,62.11
2018-04-06T05:36:33.667Z,62.22
2018-04-06T05:37:05.253Z,62.19
2018-04-06T05:37:36.840Z,62.25
2018-04-06T05:38:08.448Z,62.26
2018-04-06T05:38:40.069Z,62.24
2018-04-06T05:39:11.680Z,62.30
2018-04-06T05:39:43.269Z,62.32
2018-04-06T05:40:14.924Z,62.28
2018-04-06T05:40:46.527Z,62.37
2018-04-06T05:41:18.142Z,62.54
2018-04-06T05:41:49.778Z,62.42
2018-04-06T05:42:21.389Z,62.40
2018-04-06T05:42:53.005Z,62.49
2018-04-06T05:43:24.592Z,62.55
2018-04-06T05:43:56.205Z,62.55
2018-04-06T05:44:27.825Z,62.56
2018-04-06T05:44:59.407Z,62.56
2018-04-06T05:45:30.980Z,62.60
2018-04-06T05:46:02.605Z,62.61
2018-04-06T05:46:34.231Z,62.53
2018-04-06T05:47:05.839Z,62.69
2018-04-06T05:47:37.491Z,62.54
2018-04-06T05:48:09.108Z,62.61
2018-04-06T05:48:40.697Z,62.74
2018-04-06T05:49:12.284Z,62.37
2018-04-06T05:49:43.858Z,62.46
2018-04-06T05:50:15.489Z,62.27
2018-04-06T05:50:47.098Z,62.40
2018-04-06T05:51:18.718Z,62.32
2018-04-06T05:51:50.303Z,62.32
2018-04-06T05:52:21.904Z,62.06
2018-04-06T05:52:53.496Z,62.11
2018-04-06T05:53:25.071Z,62.10
2018-04-06T05:53:56.684Z,62.12
2018-04-06T05:54:28.296Z,62.09
2018-04-06T05:54:59.912Z,62.08
2018-04-06T05:55:31.532Z,61.84
2018-04-06T05:56:03.135Z,61.87
2018-04-06T05:56:34.728Z,61.86
2018-04-06T05:57:06.353Z,61.93
2018-04-06T05:57:37.980Z,61.72
2018-04-06T05:58:09.573Z,61.92
2018-04-06T05:58:41.210Z,62.26
2018-04-06T05:59:12.816Z,62.10
2018-04-06T05:59:44.502Z,62.26
2018-04-06T06:00:16.120Z,62.55
2018-04-06T06:00:47.722Z,62.32
2018-04-06T06:01:19.331Z,62.18
2018-04-06T06:01:50.925Z,62.48
2018-04-06T06:02:22.516Z,62.38
2018-04-06T06:02:54.105Z,62.35
2018-04-06T06:03:25.720Z,62.40
2018-04-06T06:03:57.328Z,62.51
2018-04-06T06:04:28.935Z,62.22
2018-04-06T06:05:00.579Z,62.17
2018-04-06T06:05:32.178Z,62.10
2018-04-06T06:06:03.774Z,62.26
2018-04-06T06:06:35.384Z,62.12
2018-04-06T06:07:06.998Z,62.46
2018-04-06T06:07:38.587Z,62.15
2018-04-06T06:08:10.186Z,62.08
2018-04-06T06:08:41.789Z,62.15
2018-04-06T06:09:13.384Z,62.21
2018-04-06T06:09:44.988Z,62.21
2018-04-06T06:10:16.581Z,62.16
2018-04-06T06:10:48.178Z,62.00
2018-04-06T06:11:19.788Z,61.85
2018-04-06T06:11:51.380Z,61.85
2018-04-06T06:12:22.989Z,61.85
2018-04-06T06:12:54.584Z,61.98
2018-04-06T06:13:26.199Z,61.92
2018-04-06T06:13:57.803Z,61.79
2018-04-06T06:14:29.402Z,61.83
2018-04-06T06:15:00.992Z,61.82
2018-04-06T06:15:32.583Z,61.90
2018-04-06T06:16:04.183Z,61.81
2018-04-06T06:16:35.770Z,61.78
2018-04-06T06:17:07.380Z,61.79
2018-04-06T06:17:38.959Z,61.89
2018-04-06T06:18:10.608Z,61.85
2018-04-06T06:18:42.187Z,61.76
2018-04-06T06:19:13.805Z,61.78
2018-04-06T06:19:45.395Z,61.79
2018-04-06T06:20:17.004Z,61.65
2018-04-06T06:20:48.676Z,61.81
2018-04-06T06:21:20.288Z,61.75
2018-04-06T06:21:51.931Z,61.87
2018-04-06T06:22:23.526Z,61.75
2018-04-06T06:22:55.117Z,61.81
2018-04-06T06:23:26.729Z,61.68
2018-04-06T06:23:58.322Z,61.69
2018-04-06T06:24:29.909Z,61.63
2018-04-06T06:25:01.501Z,61.80
2018-04-06T06:25:33.092Z,61.96
2018-04-06T06:26:04.745Z,62.06
2018-04-06T06:26:36.335Z,61.90
2018-04-06T06:27:07.988Z,62.03
2018-04-06T06:27:39.584Z,61.96
2018-04-06T06:28:11.197Z,62.12
2018-04-06T06:28:42.808Z,61.93
2018-04-06T06:29:14.414Z,61.93
2018-04-06T06:29:46.007Z,62.18
2018-04-06T06:30:17.596Z,61.91
2018-04-06T06:30:49.212Z,62.37
2018-04-06T06:31:20.804Z,62.04
2018-04-06T06:31:52.464Z,62.88
2018-04-06T06:32:24.067Z,63.05
2018-04-06T06:32:55.666Z,62.44
2018-04-06T06:33:27.283Z,61.97
2018-04-06T06:33:58.863Z,62.00
2018-04-06T06:34:30.532Z,62.07
2018-04-06T06:35:02.121Z,62.11
2018-04-06T06:35:33.731Z,62.38
2018-04-06T06:36:05.345Z,62.28
2018-04-06T06:36:36.932Z,62.20
2018-04-06T06:37:08.516Z,62.21
2018-04-06T06:37:40.132Z,62.21
2018-04-06T06:38:11.707Z,62.26
2018-04-06T06:38:43.306Z,62.30
2018-04-06T06:39:14.925Z,62.30
2018-04-06T06:39:46.516Z,62.29
2018-04-06T06:40:18.109Z,62.24
2018-04-06T06:40:49.745Z,62.28
2018-04-06T06:41:21.332Z,62.16
2018-04-06T06:41:52.921Z,62.15
2018-04-06T06:42:24.504Z,62.13
2018-04-06T06:42:56.112Z,62.12
2018-04-06T06:43:27.722Z,62.12
2018-04-06T06:43:59.336Z,62.06
2018-04-06T06:44:30.951Z,61.99
2018-04-06T06:45:02.577Z,61.94
2018-04-06T06:45:34.170Z,61.89
2018-04-06T06:46:05.807Z,61.87
2018-04-06T06:46:37.386Z,61.89
2018-04-06T06:47:08.972Z,61.84